New York, NY

21:57 EDT le 21 août 2014 (GMT -0400)
Murray Hill | Change Station
CLOSE
Current Station
Stations météorologiques personnelles
Location: New York, NY
Altitude: 98 ft
Stations météo à proximité

Alt. 98 ft 40.75 °N, 73.98 °W | Updated 1 second ago

Overcast
Couvert
71.2 ° F
Paraît 72 ° F
N
7.0
Vent Variable Vent de SE
Gusts 13.0 mph

Aujourd'hui
Haut(e) -- | Bas -- ° F
--% Risque de précip.
Hier
Haut(e) -- | Bas -- ° F
Precip. -- pouce
6:12 AM 7:45 PM
Lune descendante, 11% visible
Pression 30.03 pouce
Visibilité 10.0 Miles terrestres
Nuages Couvert 4400 ft
indice de chaleur 72 ° F
Point de rosée 64 ° F
Humidité 79%
Précipitations 0.18 pouce
Profondeur de la couche neigeuse Non disponible.
UV 0 sur 12
Pollen 8.70 sur 12
Qualité de l'air Non disponible.
Flu Activity Non disponible.
METAR KNYC 220151Z AUTO VRB03KT 10SM OVC044 23/17 A3006 RMK AO2 SLP168 T02280167 $

More Conditions Fewer Conditions

Pression 30.03 pouce
Visibilité 10.0 Miles terrestres
Nuages Couvert 4400 ft
indice de chaleur 72 ° F
Point de rosée 64 ° F
Humidité 79%
Précipitations 0.18 pouce
Profondeur de la couche neigeuse Non disponible.
UV 0 sur 12
Pollen 8.70 sur 12
Qualité de l'air Non disponible.
Flu Activity Non disponible.
METAR KNYC 220151Z AUTO VRB03KT 10SM OVC044 23/17 A3006 RMK AO2 SLP168 T02280167 $

More Conditions Fewer Conditions

10-Day Weather Forecast

Almanac

Astronomie

Aug. 21, 2014 Lever Coucher
Temps réel 06:12 EDT 19:45 EDT
Crépuscule civil 05:43 EDT 20:14 EDT
Crépuscule nautique 05:08 EDT 20:48 EDT
Crépuscule astronomique 04:31 EDT 21:25 EDT
Lune 02:39 EDT (8/21) 17:12 EDT (8/21)
Durée de lumière visible 14h 30m
Longueur du jour
13h 33m
Tomorrow will be 2m 29s shorter.
Lune descendante, 11% of the Moon is Illuminated
Aujourd'hui
Lune descendante
août 25
Nouveau
Sep 2
Premier quartier
Sep 8
Pleine lune
Sep 15
Dernier quartier

Extrêmes aujourd'hui

State Highs State Lows

Community

WunderPhotos

Upload Photos

1,746,105 Photos téléchargées !

WunderBlogs® & News

Nearby

Qualité de l'air

  Qualité de l'air Indice de la qualité de l'air Polluant
Hier Bon
OZONE
Hier Bon
PM2.5
jeudi Bon
OZONE
jeudi Bon
PM2.5
vendredi Bon
PM2.5
vendredi Bon
OZONE

Épaisseur de neige

Station Depth Altitude
Pas de nouvelles chutes de neige

Activité sismique

Ville Distance Mag. Time & Date
No recent earthquake activity has been reported nearby.
Minimum magnitude displayed is 2.5.

Températures des eaux côtières

Lieu Température
Sandy Hook, NJ 75.0 ° F
The Battery, NY 73.0 ° F
Bergen Point West Reach, NJ 73.9 ° F
Kings Point, NY 73.0 ° F

Stations météo à proximité